createdAt,value
2018-12-11T00:00:23.570Z,64.00
2018-12-11T00:02:58.047Z,62.40
2018-12-11T00:05:32.306Z,63.80
2018-12-11T00:08:04.181Z,64.00
2018-12-11T00:10:39.301Z,63.80
2018-12-11T00:13:14.523Z,64.00
2018-12-11T00:15:47.720Z,64.40
2018-12-11T00:18:21.874Z,63.60
2018-12-11T00:20:55.796Z,63.40
2018-12-11T00:23:29.918Z,64.40
2018-12-11T00:26:04.294Z,64.00
2018-12-11T00:39:18.130Z,63.80
2018-12-11T00:41:52.199Z,63.80
2018-12-11T00:47:12.447Z,65.40
2018-12-11T00:49:48.188Z,64.00
2018-12-11T00:52:24.796Z,63.40
2018-12-11T00:55:04.732Z,63.60
2018-12-11T00:57:41.068Z,64.00
2018-12-11T01:00:15.915Z,64.80
2018-12-11T01:02:52.379Z,63.60
2018-12-11T01:05:32.022Z,63.60
2018-12-11T01:08:06.420Z,64.00
2018-12-11T01:10:40.568Z,63.80
2018-12-11T01:13:15.408Z,61.00
2018-12-11T01:15:52.261Z,64.00
2018-12-11T01:18:25.332Z,61.40
2018-12-11T01:21:00.707Z,60.60
2018-12-11T01:23:36.512Z,61.40
2018-12-11T01:26:08.350Z,61.00
2018-12-11T01:28:43.680Z,61.80
2018-12-11T01:42:33.018Z,59.80
2018-12-11T01:45:08.837Z,61.00
2018-12-11T01:47:44.387Z,60.80
2018-12-11T01:50:19.133Z,60.60
2018-12-11T01:55:39.578Z,60.60
2018-12-11T01:58:14.463Z,61.80
2018-12-11T02:00:46.733Z,61.40
2018-12-11T02:03:21.812Z,63.60
2018-12-11T02:05:58.823Z,60.80
2018-12-11T02:08:34.786Z,63.60
2018-12-11T02:14:00.339Z,63.00
2018-12-11T02:19:21.259Z,61.80
2018-12-11T02:54:37.793Z,58.00
2018-12-11T02:57:13.040Z,58.00
2018-12-11T02:59:44.893Z,60.80
2018-12-11T03:02:18.837Z,60.60
2018-12-11T03:04:52.813Z,59.80
2018-12-11T03:07:24.737Z,58.00
2018-12-11T03:09:58.590Z,58.40
2018-12-11T03:12:36.643Z,58.80
2018-12-11T03:15:18.704Z,61.40
2018-12-11T03:20:52.858Z,60.80
2018-12-11T03:26:11.684Z,60.80
2018-12-11T03:28:46.756Z,61.00
2018-12-11T03:31:18.982Z,61.00
2018-12-11T03:36:44.609Z,59.20
2018-12-11T03:39:16.250Z,59.60
2018-12-11T03:41:50.806Z,59.40
2018-12-11T03:44:25.948Z,62.20
2018-12-11T03:47:01.693Z,59.20
2018-12-11T03:49:37.129Z,60.40
2018-12-11T03:52:13.514Z,61.00
2018-12-11T03:54:48.460Z,60.40
2018-12-11T03:57:27.520Z,61.00
2018-12-11T04:00:06.595Z,60.20
2018-12-11T04:02:44.217Z,60.60
2018-12-11T04:05:19.618Z,61.80
2018-12-11T04:07:54.810Z,61.40
2018-12-11T04:10:30.109Z,62.20
2018-12-11T04:13:05.893Z,59.20
2018-12-11T04:15:43.761Z,59.20
2018-12-11T04:18:23.292Z,60.80
2018-12-11T04:20:57.361Z,59.60
2018-12-11T04:23:31.427Z,61.00
2018-12-11T04:26:06.973Z,60.40
2018-12-11T04:28:41.392Z,60.60
2018-12-11T04:31:15.270Z,60.80
2018-12-11T04:33:51.072Z,61.00
2018-12-11T04:36:27.291Z,60.80
2018-12-11T04:39:07.246Z,61.00
2018-12-11T04:41:57.278Z,59.60
2018-12-11T04:44:44.927Z,59.40
2018-12-11T04:56:03.361Z,62.40
2018-12-11T04:58:37.620Z,63.80
2018-12-11T05:01:11.974Z,62.20
2018-12-11T05:03:40.477Z,61.80
2018-12-11T05:06:10.966Z,61.80
2018-12-11T05:11:36.859Z,63.20
2018-12-11T05:14:05.959Z,61.40
2018-12-11T05:16:36.401Z,63.80
2018-12-11T05:19:04.835Z,62.60
2018-12-11T05:21:33.215Z,62.60
2018-12-11T05:24:02.579Z,63.00
2018-12-11T05:26:32.023Z,63.00
2018-12-11T05:29:04.188Z,64.00
2018-12-11T05:31:36.291Z,65.20
2018-12-11T05:34:04.748Z,63.60
2018-12-11T05:36:34.551Z,65.20
2018-12-11T05:39:03.357Z,63.40
2018-12-11T05:41:31.737Z,63.00
2018-12-11T05:44:00.095Z,63.00
2018-12-11T05:46:28.416Z,61.80
2018-12-11T05:48:56.827Z,61.40
2018-12-11T05:51:31.548Z,61.80
2018-12-11T05:54:05.424Z,63.00
2018-12-11T05:56:35.777Z,63.00
2018-12-11T05:59:04.598Z,61.00
2018-12-11T06:01:33.026Z,63.00
2018-12-11T06:04:01.395Z,61.80
2018-12-11T06:06:29.936Z,62.80
2018-12-11T06:09:07.358Z,61.40
2018-12-11T06:11:40.507Z,61.80
2018-12-11T06:14:19.165Z,61.80
2018-12-11T06:16:47.610Z,61.20
2018-12-11T06:19:17.227Z,60.60
2018-12-11T06:21:45.568Z,61.00
2018-12-11T06:24:13.891Z,61.40
2018-12-11T06:26:42.242Z,63.40
2018-12-11T06:29:10.560Z,61.00
2018-12-11T06:31:40.359Z,61.80
2018-12-11T06:34:16.209Z,61.00
2018-12-11T06:39:47.427Z,61.40
2018-12-11T06:42:24.376Z,61.40
2018-12-11T06:44:53.414Z,63.60
2018-12-11T06:47:22.429Z,61.80
2018-12-11T06:49:50.944Z,61.80
2018-12-11T06:52:26.425Z,62.60
2018-12-11T06:54:54.881Z,54.20
2018-12-11T06:57:23.788Z,60.80
2018-12-11T06:59:52.582Z,55.00
2018-12-11T07:02:21.797Z,62.20
2018-12-11T07:04:50.308Z,60.80
2018-12-11T07:07:19.552Z,62.00
2018-12-11T07:09:47.986Z,63.40
2018-12-11T07:12:16.411Z,64.00
2018-12-11T07:14:48.803Z,63.40
2018-12-11T07:17:17.801Z,61.40
2018-12-11T07:19:46.176Z,61.80
2018-12-11T07:22:14.580Z,61.00
2018-12-11T07:24:49.016Z,62.00
2018-12-11T07:27:18.827Z,61.00
2018-12-11T07:29:49.029Z,61.00
2018-12-11T07:32:31.620Z,63.40
2018-12-11T07:35:04.477Z,60.40
2018-12-11T07:37:35.142Z,58.00
2018-12-11T07:40:04.796Z,60.60
2018-12-11T07:42:35.027Z,60.00
2018-12-11T07:45:07.044Z,62.60
2018-12-11T07:47:41.260Z,58.00
2018-12-11T07:50:10.168Z,63.60
2018-12-11T07:52:39.630Z,63.40
2018-12-11T07:55:15.226Z,61.40
2018-12-11T07:57:49.765Z,62.00
2018-12-11T08:00:18.552Z,64.00
2018-12-11T08:02:48.980Z,61.00
2018-12-11T08:05:20.440Z,63.40
2018-12-11T08:07:56.482Z,61.00
2018-12-11T08:13:24.147Z,62.20
2018-12-11T08:15:55.538Z,60.80
2018-12-11T08:18:32.780Z,64.00
2018-12-11T08:21:03.023Z,61.00
2018-12-11T08:23:45.941Z,63.40
2018-12-11T08:26:26.410Z,60.00
2018-12-11T08:28:56.487Z,58.80
2018-12-11T08:34:37.880Z,63.20
2018-12-11T08:37:13.101Z,60.60
2018-12-11T08:39:57.931Z,60.40
2018-12-11T08:42:39.216Z,61.80
2018-12-11T08:47:09.937Z,84.60
2018-12-11T08:49:40.342Z,69.80
2018-12-11T08:52:10.728Z,64.80
2018-12-11T08:54:49.903Z,63.00
2018-12-11T08:57:22.203Z,63.00
2018-12-11T08:59:51.566Z,63.00
2018-12-11T09:02:20.241Z,64.80
2018-12-11T09:04:51.283Z,66.80
2018-12-11T09:07:22.203Z,66.00
2018-12-11T09:09:52.267Z,65.40
2018-12-11T09:12:25.361Z,67.40
2018-12-11T09:15:01.766Z,68.20
2018-12-11T09:17:30.697Z,67.00
2018-12-11T09:20:01.367Z,69.20
2018-12-11T09:33:21.207Z,84.60
2018-12-11T09:35:59.496Z,81.80
2018-12-11T09:38:35.683Z,81.40
2018-12-11T09:41:11.269Z,80.60
2018-12-11T09:43:45.654Z,79.80
2018-12-11T09:51:58.468Z,82.40
2018-12-11T10:00:27.806Z,79.80
2018-12-11T10:03:08.293Z,80.00
2018-12-11T10:05:56.670Z,81.40
2018-12-11T10:14:28.429Z,84.60
2018-12-11T10:31:32.509Z,112.00
2018-12-11T10:34:09.518Z,93.60
2018-12-11T10:39:42.618Z,87.60
2018-12-11T10:45:23.262Z,112.80
2018-12-11T12:18:47.254Z,81.60
2018-12-11T12:24:14.668Z,54.80
2018-12-11T12:35:35.289Z,84.00
2018-12-11T12:38:16.292Z,86.80
2018-12-11T12:52:50.062Z,81.80
2018-12-11T13:43:33.204Z,82.80
2018-12-11T15:05:12.764Z,81.00
2018-12-11T15:07:57.564Z,76.00
2018-12-11T15:24:47.257Z,76.00
2018-12-11T15:38:47.033Z,75.80
2018-12-11T15:41:34.467Z,79.00
2018-12-11T16:09:41.464Z,75.00
2018-12-11T16:12:32.062Z,75.80
2018-12-11T16:15:11.708Z,73.80
2018-12-11T16:33:21.581Z,74.20
2018-12-11T17:39:21.793Z,85.00
2018-12-11T17:42:39.955Z,79.00
2018-12-11T17:45:30.124Z,78.00
2018-12-11T17:51:01.912Z,78.20
2018-12-11T17:56:31.084Z,75.60
2018-12-11T18:11:03.209Z,76.00
2018-12-11T18:28:06.781Z,74.60
2018-12-11T20:55:42.677Z,65.40
2018-12-11T21:18:15.297Z,63.80
2018-12-11T21:20:52.754Z,62.80
2018-12-11T21:23:31.325Z,61.40
2018-12-11T21:26:07.833Z,62.20
2018-12-11T21:28:42.221Z,63.00
2018-12-11T21:31:16.608Z,63.80
2018-12-11T21:33:48.575Z,63.80
2018-12-11T21:36:23.656Z,63.40
2018-12-11T21:38:57.623Z,61.40
2018-12-11T21:41:33.227Z,63.40
2018-12-11T21:44:08.282Z,62.80
2018-12-11T21:46:44.640Z,61.40
2018-12-11T21:49:19.243Z,62.40
2018-12-11T21:51:53.907Z,61.40
2018-12-11T21:54:28.659Z,61.40
2018-12-11T21:57:02.024Z,61.00
2018-12-11T21:59:34.471Z,63.00
2018-12-11T22:02:10.627Z,64.00
2018-12-11T22:04:46.708Z,63.00
2018-12-11T22:07:23.189Z,63.80
2018-12-11T22:09:57.775Z,63.60
2018-12-11T22:12:33.695Z,61.40
2018-12-11T22:15:08.465Z,60.60
2018-12-11T22:17:44.449Z,60.60
2018-12-11T22:20:18.780Z,62.20
2018-12-11T22:22:53.021Z,61.00
2018-12-11T22:25:27.581Z,62.60
2018-12-11T22:28:01.870Z,59.60
2018-12-11T22:30:38.097Z,58.80
2018-12-11T22:33:12.124Z,57.80
2018-12-11T22:35:46.452Z,58.40
2018-12-11T22:38:21.265Z,61.00
2018-12-11T22:41:50.070Z,82.00
2018-12-11T22:44:25.238Z,66.20
2018-12-11T22:47:00.192Z,61.80
2018-12-11T22:49:37.798Z,61.80
2018-12-11T22:52:12.697Z,59.60
2018-12-11T22:54:46.825Z,58.00
2018-12-11T22:57:21.255Z,58.00
2018-12-11T22:59:56.053Z,58.40
2018-12-11T23:02:27.801Z,57.40
2018-12-11T23:04:58.335Z,58.00
2018-12-11T23:07:32.138Z,56.80
2018-12-11T23:10:07.270Z,57.00
2018-12-11T23:12:39.021Z,56.20
2018-12-11T23:15:09.412Z,57.60
2018-12-11T23:17:43.826Z,57.40
2018-12-11T23:20:21.963Z,55.00
2018-12-11T23:22:56.347Z,56.20
2018-12-11T23:28:29.288Z,55.40
2018-12-11T23:31:09.242Z,55.00
2018-12-11T23:33:43.838Z,55.80
2018-12-11T23:36:19.807Z,55.40
2018-12-11T23:38:58.627Z,53.00
2018-12-11T23:41:32.954Z,55.00
2018-12-11T23:44:09.384Z,55.80
2018-12-11T23:46:44.093Z,55.00
2018-12-11T23:49:21.379Z,55.00
2018-12-11T23:51:53.724Z,56.40
2018-12-11T23:54:28.943Z,57.20
2018-12-11T23:57:03.953Z,54.60
2018-12-11T23:59:43.174Z,55.00
